createdAt,value
2018-05-23T00:00:13.723Z,14.17
2018-05-23T00:02:41.224Z,11.50
2018-05-23T00:05:09.461Z,15.63
2018-05-23T00:07:36.953Z,11.50
2018-05-23T00:10:05.253Z,11.93
2018-05-23T00:12:32.855Z,11.23
2018-05-23T00:15:00.413Z,11.13
2018-05-23T00:17:27.877Z,10.77
2018-05-23T00:19:55.381Z,10.33
2018-05-23T00:22:22.926Z,12.40
2018-05-23T00:24:51.203Z,12.13
2018-05-23T00:27:19.453Z,16.00
2018-05-23T00:29:47.101Z,18.73
2018-05-23T00:32:14.619Z,20.63
2018-05-23T00:34:42.264Z,21.77
2018-05-23T00:37:10.517Z,22.83
2018-05-23T00:39:38.092Z,27.13
2018-05-23T00:42:06.423Z,27.60
2018-05-23T00:44:34.465Z,30.40
2018-05-23T00:47:02.085Z,29.03
2018-05-23T00:49:30.268Z,26.90
2018-05-23T00:51:57.724Z,24.47
2018-05-23T00:54:25.992Z,23.57
2018-05-23T00:56:53.461Z,22.20
2018-05-23T00:59:21.715Z,16.73
2018-05-23T01:01:49.428Z,14.20
2018-05-23T01:04:17.489Z,14.17
2018-05-23T01:06:46.360Z,13.57
2018-05-23T01:09:14.597Z,14.00
2018-05-23T01:11:42.197Z,13.00
2018-05-23T01:14:09.779Z,11.37
2018-05-23T01:16:37.352Z,11.47
2018-05-23T01:19:04.823Z,12.53
2018-05-23T01:21:32.285Z,11.93
2018-05-23T01:23:59.750Z,11.30
2018-05-23T01:26:27.319Z,12.00
2018-05-23T01:28:54.906Z,13.13
2018-05-23T01:31:22.630Z,13.23
2018-05-23T01:33:50.327Z,14.07
2018-05-23T01:36:18.419Z,13.10
2018-05-23T01:38:46.672Z,12.67
2018-05-23T01:41:14.129Z,12.60
2018-05-23T01:43:41.639Z,13.57
2018-05-23T01:46:09.133Z,13.17
2018-05-23T01:48:48.404Z,13.77
2018-05-23T01:51:16.636Z,15.80
2018-05-23T01:53:44.142Z,15.30
2018-05-23T01:56:12.416Z,15.13
2018-05-23T01:58:40.674Z,13.67
2018-05-23T02:01:08.306Z,13.07
2018-05-23T02:03:36.721Z,14.30
2018-05-23T02:06:05.096Z,12.10
2018-05-23T02:08:33.339Z,12.73
2018-05-23T02:11:00.846Z,13.73
2018-05-23T02:13:29.545Z,15.67
2018-05-23T02:15:57.318Z,16.83
2018-05-23T02:18:25.002Z,19.10
2018-05-23T02:20:53.153Z,20.63
2018-05-23T02:23:21.155Z,22.17
2018-05-23T02:25:49.565Z,25.63
2018-05-23T02:28:17.427Z,24.90
2018-05-23T02:30:44.936Z,24.77
2018-05-23T02:33:12.514Z,22.50
2018-05-23T02:35:40.923Z,21.90
2018-05-23T02:38:08.419Z,20.83
2018-05-23T02:40:35.904Z,20.20
2018-05-23T02:43:03.393Z,18.50
2018-05-23T02:45:31.348Z,17.27
2018-05-23T02:47:59.284Z,14.93
2018-05-23T02:50:26.780Z,14.10
2018-05-23T02:52:54.284Z,14.20
2018-05-23T02:55:21.808Z,14.17
2018-05-23T02:57:50.713Z,13.87
2018-05-23T03:00:19.022Z,14.40
2018-05-23T03:02:46.575Z,14.60
2018-05-23T03:05:15.497Z,14.20
2018-05-23T03:07:43.159Z,13.67
2018-05-23T03:10:11.100Z,14.77
2018-05-23T03:12:38.694Z,13.53
2018-05-23T03:15:06.211Z,13.53
2018-05-23T03:17:33.902Z,15.20
2018-05-23T03:20:01.549Z,15.60
2018-05-23T03:22:29.290Z,14.70
2018-05-23T03:24:56.800Z,13.33
2018-05-23T03:27:24.269Z,13.90
2018-05-23T03:29:51.732Z,12.63
2018-05-23T03:32:19.248Z,14.83
2018-05-23T03:34:49.834Z,13.47
2018-05-23T03:37:18.104Z,13.77
2018-05-23T03:39:46.364Z,14.40
2018-05-23T03:42:19.872Z,13.33
2018-05-23T03:44:48.840Z,13.30
2018-05-23T03:47:17.083Z,13.00
2018-05-23T03:49:44.740Z,13.33
2018-05-23T03:52:14.763Z,13.53
2018-05-23T03:54:42.646Z,12.83
2018-05-23T03:57:10.426Z,13.33
2018-05-23T03:59:49.664Z,14.30
2018-05-23T04:02:29.235Z,13.17
2018-05-23T04:05:09.363Z,13.77
2018-05-23T04:07:38.597Z,12.27
2018-05-23T04:10:06.848Z,12.80
2018-05-23T04:12:34.339Z,13.93
2018-05-23T04:15:01.845Z,13.23
2018-05-23T04:17:29.403Z,11.67
2018-05-23T04:19:56.890Z,11.73
2018-05-23T04:22:24.438Z,10.57
2018-05-23T04:24:51.998Z,11.87
2018-05-23T04:27:19.437Z,13.40
2018-05-23T04:29:47.054Z,13.03
2018-05-23T04:32:14.589Z,12.70
2018-05-23T04:34:42.104Z,13.17
2018-05-23T04:37:09.599Z,13.93
2018-05-23T04:39:37.078Z,13.47
2018-05-23T04:42:05.337Z,14.40
2018-05-23T04:44:33.626Z,12.83
2018-05-23T04:47:03.806Z,12.87
2018-05-23T04:49:31.308Z,12.37
2018-05-23T04:51:59.088Z,11.83
2018-05-23T04:54:26.777Z,11.60
2018-05-23T04:56:54.274Z,11.90
2018-05-23T04:59:22.563Z,11.57
2018-05-23T05:01:50.895Z,12.10
2018-05-23T05:04:18.411Z,12.50
2018-05-23T05:06:45.988Z,12.37
2018-05-23T05:09:13.646Z,11.40
2018-05-23T05:11:41.217Z,11.13
2018-05-23T05:14:08.800Z,11.60
2018-05-23T05:16:36.500Z,11.50
2018-05-23T05:19:04.829Z,11.10
2018-05-23T05:21:33.117Z,11.47
2018-05-23T05:24:00.803Z,11.40
2018-05-23T05:26:28.336Z,12.20
2018-05-23T05:28:55.900Z,12.97
2018-05-23T05:31:23.763Z,13.67
2018-05-23T05:33:51.282Z,13.57
2018-05-23T05:36:18.760Z,13.33
2018-05-23T05:38:46.276Z,13.20
2018-05-23T05:41:15.593Z,13.90
2018-05-23T05:43:43.092Z,14.63
2018-05-23T05:46:11.375Z,14.47
2018-05-23T05:48:39.102Z,14.17
2018-05-23T05:51:06.802Z,13.43
2018-05-23T05:53:34.379Z,14.43
2018-05-23T05:56:03.763Z,13.43
2018-05-23T05:58:31.885Z,11.50
2018-05-23T06:01:00.866Z,10.70
2018-05-23T06:03:29.168Z,11.03
2018-05-23T06:05:56.701Z,9.83
2018-05-23T06:08:28.889Z,10.30
2018-05-23T06:10:56.379Z,9.50
2018-05-23T06:13:23.918Z,10.73
2018-05-23T06:15:52.000Z,10.63
2018-05-23T06:18:19.514Z,10.90
2018-05-23T06:20:47.815Z,11.57
2018-05-23T06:23:15.390Z,11.70
2018-05-23T06:25:43.762Z,11.70
2018-05-23T06:28:11.400Z,11.13
2018-05-23T06:30:39.652Z,11.07
2018-05-23T06:33:07.152Z,11.27
2018-05-23T06:35:35.127Z,11.37
2018-05-23T06:38:02.841Z,10.83
2018-05-23T06:40:30.368Z,11.43
2018-05-23T06:42:58.080Z,11.87
2018-05-23T06:45:26.328Z,11.50
2018-05-23T06:47:54.160Z,11.27
2018-05-23T06:50:21.946Z,11.77
2018-05-23T06:52:49.488Z,12.00
2018-05-23T06:55:16.982Z,11.53
2018-05-23T06:57:44.491Z,11.23
2018-05-23T07:00:11.992Z,11.77
2018-05-23T07:02:39.864Z,11.37
2018-05-23T07:05:07.588Z,12.20
2018-05-23T07:07:35.079Z,11.80
2018-05-23T07:10:02.937Z,11.80
2018-05-23T07:12:30.886Z,11.67
2018-05-23T07:14:58.378Z,10.27
2018-05-23T07:17:25.904Z,11.87
2018-05-23T07:19:53.540Z,12.67
2018-05-23T07:22:21.176Z,12.23
2018-05-23T07:24:49.459Z,12.63
2018-05-23T07:27:17.728Z,11.40
2018-05-23T07:29:46.445Z,11.57
2018-05-23T07:32:14.025Z,11.83
2018-05-23T07:34:41.521Z,11.83
2018-05-23T07:37:08.984Z,11.70
2018-05-23T07:39:37.217Z,12.70
2018-05-23T07:42:04.970Z,11.00
2018-05-23T07:44:32.430Z,11.43
2018-05-23T07:47:00.064Z,11.20
2018-05-23T07:49:28.292Z,10.53
2018-05-23T07:51:56.360Z,10.80
2018-05-23T07:54:27.661Z,10.60
2018-05-23T07:56:55.133Z,10.40
2018-05-23T07:59:22.613Z,10.13
2018-05-23T08:01:50.077Z,9.33
2018-05-23T08:04:17.580Z,9.48
2018-05-23T08:06:46.481Z,9.07
2018-05-23T08:09:14.209Z,9.98
2018-05-23T08:11:41.715Z,9.43
2018-05-23T08:14:09.678Z,8.18
2018-05-23T08:16:37.198Z,9.02
2018-05-23T08:19:04.703Z,7.72
2018-05-23T08:21:32.180Z,8.57
2018-05-23T08:24:00.252Z,7.97
2018-05-23T08:26:27.728Z,7.68
2018-05-23T08:28:55.180Z,7.35
2018-05-23T08:31:22.641Z,8.50
2018-05-23T08:33:50.104Z,7.85
2018-05-23T08:36:17.622Z,7.60
2018-05-23T08:38:45.104Z,8.00
2018-05-23T08:41:12.559Z,8.43
2018-05-23T08:43:40.160Z,7.75
2018-05-23T08:46:08.461Z,7.97
2018-05-23T08:48:36.659Z,7.00
2018-05-23T08:51:04.117Z,8.60
2018-05-23T08:53:32.232Z,7.30
2018-05-23T08:56:00.875Z,7.12
2018-05-23T08:58:28.387Z,7.30
2018-05-23T09:00:56.644Z,6.20
2018-05-23T09:03:24.227Z,6.20
2018-05-23T09:05:52.484Z,6.47
2018-05-23T09:08:20.448Z,5.43
2018-05-23T09:10:48.020Z,6.65
2018-05-23T09:13:16.283Z,5.28
2018-05-23T09:15:43.828Z,6.60
2018-05-23T09:18:11.389Z,6.50
2018-05-23T09:20:39.444Z,5.95
2018-05-23T09:23:07.007Z,7.20
2018-05-23T09:25:35.183Z,5.65
2018-05-23T09:28:03.078Z,6.55
2018-05-23T09:30:32.060Z,6.03
2018-05-23T09:32:59.716Z,5.70
2018-05-23T09:35:27.963Z,5.62
2018-05-23T09:37:55.442Z,5.10
2018-05-23T09:40:22.909Z,6.60
2018-05-23T09:42:50.392Z,6.85
2018-05-23T09:45:19.106Z,6.72
2018-05-23T09:47:47.097Z,6.62
2018-05-23T09:50:14.575Z,6.72
2018-05-23T09:52:42.672Z,6.37
2018-05-23T09:55:11.343Z,6.47
2018-05-23T09:57:39.140Z,6.65
2018-05-23T10:00:07.379Z,5.35
2018-05-23T10:02:35.443Z,5.95
2018-05-23T10:05:03.043Z,4.87
2018-05-23T10:07:31.335Z,6.60
2018-05-23T10:09:58.784Z,5.00
2018-05-23T10:12:26.319Z,4.75
2018-05-23T10:14:53.856Z,5.82
2018-05-23T10:17:21.448Z,5.20
2018-05-23T10:19:49.690Z,5.65
2018-05-23T10:22:17.152Z,4.62
2018-05-23T10:24:46.165Z,4.10
2018-05-23T10:27:13.633Z,5.57
2018-05-23T10:29:41.938Z,4.75
2018-05-23T10:32:09.411Z,5.03
2018-05-23T10:34:37.268Z,4.55
2018-05-23T10:37:04.766Z,5.00
2018-05-23T10:39:32.234Z,5.05
2018-05-23T10:42:01.224Z,4.40
2018-05-23T10:44:28.688Z,4.70
2018-05-23T10:46:56.935Z,5.28
2018-05-23T10:49:24.463Z,5.35
2018-05-23T10:51:51.992Z,5.18
2018-05-23T10:54:20.244Z,5.37
2018-05-23T10:56:48.319Z,3.97
2018-05-23T10:59:15.769Z,4.12
2018-05-23T11:01:44.231Z,4.43
2018-05-23T11:04:11.668Z,4.57
2018-05-23T11:06:39.151Z,4.50
2018-05-23T11:09:06.701Z,3.70
2018-05-23T11:11:34.887Z,4.12
2018-05-23T11:14:02.340Z,4.07
2018-05-23T11:16:29.876Z,5.15
2018-05-23T11:18:57.401Z,3.95
2018-05-23T11:21:25.664Z,4.10
2018-05-23T11:23:53.908Z,4.15
2018-05-23T11:26:22.899Z,3.50
2018-05-23T11:28:50.910Z,3.40
2018-05-23T11:31:19.146Z,4.00
2018-05-23T11:33:46.629Z,3.45
2018-05-23T11:36:14.796Z,3.97
2018-05-23T11:38:42.713Z,3.75
2018-05-23T11:41:10.201Z,4.28
2018-05-23T11:43:37.671Z,3.72
2018-05-23T11:46:05.149Z,3.53
2018-05-23T11:48:32.639Z,4.15
2018-05-23T11:51:00.667Z,3.42
2018-05-23T11:53:28.676Z,3.50
2018-05-23T11:55:56.131Z,3.55
2018-05-23T11:58:23.925Z,3.58
2018-05-23T12:00:53.318Z,3.75
2018-05-23T12:03:21.991Z,4.18
2018-05-23T12:05:49.447Z,4.03
2018-05-23T12:08:16.917Z,3.75
2018-05-23T12:10:44.452Z,3.55
2018-05-23T12:13:12.548Z,4.18
2018-05-23T12:15:40.032Z,3.78
2018-05-23T12:18:07.650Z,3.87
2018-05-23T12:20:35.558Z,4.32
2018-05-23T12:23:03.164Z,3.92
2018-05-23T12:25:33.687Z,3.55
2018-05-23T12:28:02.498Z,4.65
2018-05-23T12:30:29.946Z,4.18
2018-05-23T12:32:57.438Z,4.93
2018-05-23T12:35:24.913Z,3.97
2018-05-23T12:37:52.889Z,3.92
2018-05-23T12:40:23.659Z,4.28
2018-05-23T12:42:51.884Z,4.37
2018-05-23T12:45:19.377Z,4.68
2018-05-23T12:47:46.881Z,4.70
2018-05-23T12:50:14.348Z,4.37
2018-05-23T12:52:41.801Z,4.80
2018-05-23T12:55:09.328Z,4.15
2018-05-23T12:57:37.555Z,4.22
2018-05-23T13:00:05.612Z,4.05
2018-05-23T13:02:33.106Z,3.92
2018-05-23T13:05:03.082Z,4.68
2018-05-23T13:07:30.558Z,4.00
2018-05-23T13:09:58.059Z,4.05
2018-05-23T13:12:26.312Z,4.30
2018-05-23T13:14:53.982Z,4.35
2018-05-23T13:17:21.451Z,4.00
2018-05-23T13:19:49.734Z,3.87
2018-05-23T13:22:18.692Z,4.60
2018-05-23T13:24:47.047Z,3.72
2018-05-23T13:27:14.605Z,3.90
2018-05-23T13:29:43.184Z,4.07
2018-05-23T13:32:10.671Z,3.80
2018-05-23T13:34:38.707Z,4.12
2018-05-23T13:37:06.204Z,3.72
2018-05-23T13:39:33.807Z,3.50
2018-05-23T13:42:01.577Z,4.07
2018-05-23T13:44:29.148Z,4.05
2018-05-23T13:46:56.734Z,3.37
2018-05-23T13:49:24.601Z,4.12
2018-05-23T13:51:52.056Z,3.70
2018-05-23T13:54:19.530Z,3.80
2018-05-23T13:56:47.007Z,3.83
2018-05-23T13:59:15.677Z,3.50
2018-05-23T14:01:43.161Z,4.68
2018-05-23T14:04:11.593Z,3.70
2018-05-23T14:06:39.423Z,3.75
2018-05-23T14:09:06.893Z,3.83
2018-05-23T14:11:34.393Z,3.67
2018-05-23T14:14:01.886Z,4.00
2018-05-23T14:16:29.912Z,3.60
2018-05-23T14:18:59.374Z,3.87
2018-05-23T14:21:26.857Z,4.50
2018-05-23T14:23:54.350Z,4.20
2018-05-23T14:26:21.853Z,3.87
2018-05-23T14:28:49.357Z,3.80
2018-05-23T14:31:17.872Z,3.33
2018-05-23T14:33:45.913Z,2.65
2018-05-23T14:36:13.389Z,2.50
2018-05-23T14:38:41.701Z,3.40
2018-05-23T14:41:09.761Z,3.30
2018-05-23T14:43:38.062Z,3.08
2018-05-23T14:46:05.639Z,4.43
2018-05-23T14:48:33.129Z,3.55
2018-05-23T14:51:01.373Z,4.28
2018-05-23T14:53:29.419Z,5.60
2018-05-23T14:55:56.959Z,4.87
2018-05-23T14:58:25.186Z,4.85
2018-05-23T15:00:52.663Z,5.05
2018-05-23T15:03:20.103Z,4.65
2018-05-23T15:05:48.094Z,4.75
2018-05-23T15:08:16.346Z,4.10
2018-05-23T15:10:43.827Z,3.80
2018-05-23T15:13:12.074Z,4.03
2018-05-23T15:15:39.673Z,4.22
2018-05-23T15:18:07.935Z,4.05
2018-05-23T15:20:35.399Z,4.35
2018-05-23T15:23:03.658Z,4.00
2018-05-23T15:25:31.136Z,3.40
2018-05-23T15:27:59.699Z,3.80
2018-05-23T15:30:27.170Z,3.75
2018-05-23T15:32:55.384Z,3.33
2018-05-23T15:35:22.867Z,2.70
2018-05-23T15:37:50.848Z,2.80
2018-05-23T15:40:18.427Z,2.45
2018-05-23T15:42:46.639Z,2.80
2018-05-23T15:45:14.087Z,3.10
2018-05-23T15:47:41.597Z,2.60
2018-05-23T15:50:09.091Z,3.03
2018-05-23T15:52:37.355Z,2.75
2018-05-23T15:55:05.606Z,2.95
2018-05-23T15:57:33.069Z,2.97
2018-05-23T16:00:00.520Z,3.25
2018-05-23T16:02:29.588Z,3.83
2018-05-23T16:04:57.644Z,3.00
2018-05-23T16:07:25.131Z,3.35
2018-05-23T16:09:52.599Z,2.70
2018-05-23T16:12:20.069Z,3.08
2018-05-23T16:14:47.561Z,3.03
2018-05-23T16:17:15.847Z,3.03
2018-05-23T16:19:43.284Z,3.58
2018-05-23T16:22:11.541Z,3.60
2018-05-23T16:24:39.002Z,3.67
2018-05-23T16:27:07.247Z,3.60
2018-05-23T16:29:34.700Z,3.60
2018-05-23T16:32:02.233Z,3.25
2018-05-23T16:34:29.759Z,3.55
2018-05-23T16:36:58.885Z,3.35
2018-05-23T16:39:26.391Z,3.45
2018-05-23T16:41:53.892Z,3.42
2018-05-23T16:44:21.397Z,3.50
2018-05-23T16:46:48.865Z,3.70
2018-05-23T16:49:16.345Z,4.20
2018-05-23T16:51:44.595Z,3.95
2018-05-23T16:54:12.072Z,4.27
2018-05-23T16:56:39.576Z,4.87
2018-05-23T16:59:07.140Z,4.83
2018-05-23T17:01:34.616Z,4.73
2018-05-23T17:04:02.084Z,4.70
2018-05-23T17:06:29.609Z,4.70
2018-05-23T17:08:57.407Z,5.35
2018-05-23T17:11:24.961Z,4.70
2018-05-23T17:13:52.518Z,4.97
2018-05-23T17:16:19.988Z,4.93
2018-05-23T17:18:47.533Z,5.20
2018-05-23T17:21:15.268Z,5.20
2018-05-23T17:23:43.676Z,6.07
2018-05-23T17:26:11.851Z,5.53
2018-05-23T17:28:39.773Z,6.10
2018-05-23T17:31:07.262Z,5.87
2018-05-23T17:33:34.735Z,5.47
2018-05-23T17:36:02.244Z,6.80
2018-05-23T17:38:30.537Z,6.03
2018-05-23T17:40:58.005Z,6.40
2018-05-23T17:43:26.565Z,6.63
2018-05-23T17:45:54.100Z,6.00
2018-05-23T17:48:26.656Z,6.10
2018-05-23T17:50:54.416Z,6.90
2018-05-23T17:53:21.960Z,6.80
2018-05-23T17:55:49.455Z,6.50
2018-05-23T17:58:17.676Z,7.47
2018-05-23T18:00:45.152Z,7.40
2018-05-23T18:03:12.658Z,7.30
2018-05-23T18:05:40.779Z,7.90
2018-05-23T18:08:08.244Z,8.13
2018-05-23T18:10:35.728Z,7.73
2018-05-23T18:13:03.177Z,8.07
2018-05-23T18:15:30.627Z,7.23
2018-05-23T18:17:58.092Z,7.90
2018-05-23T18:20:25.556Z,9.20
2018-05-23T18:22:53.051Z,8.50
2018-05-23T18:25:20.525Z,8.27
2018-05-23T18:27:47.979Z,8.67
2018-05-23T18:30:15.476Z,8.73
2018-05-23T18:32:42.960Z,8.80
2018-05-23T18:35:11.912Z,8.83
2018-05-23T18:37:39.405Z,8.97
2018-05-23T18:40:06.876Z,10.10
2018-05-23T18:42:34.776Z,8.87
2018-05-23T18:45:02.240Z,9.00
2018-05-23T18:47:30.269Z,10.00
2018-05-23T18:49:58.513Z,9.37
2018-05-23T18:52:26.409Z,8.53
2018-05-23T18:54:54.683Z,8.60
2018-05-23T18:57:22.931Z,9.63
2018-05-23T18:59:50.413Z,10.03
2018-05-23T19:02:17.929Z,8.83
2018-05-23T19:04:45.387Z,8.87
2018-05-23T19:07:12.848Z,9.40
2018-05-23T19:09:40.324Z,9.00
2018-05-23T19:12:08.363Z,8.83
2018-05-23T19:14:35.865Z,9.37
2018-05-23T19:17:04.121Z,8.77
2018-05-23T19:19:31.621Z,9.67
2018-05-23T19:21:59.086Z,9.57
2018-05-23T19:24:29.339Z,9.70
2018-05-23T19:26:56.800Z,10.27
2018-05-23T19:29:24.283Z,9.60
2018-05-23T19:31:51.748Z,9.67
2018-05-23T19:34:20.024Z,10.67
2018-05-23T19:36:48.301Z,10.77
2018-05-23T19:39:16.568Z,10.23
2018-05-23T19:41:44.928Z,10.27
2018-05-23T19:44:12.430Z,10.00
2018-05-23T19:46:40.655Z,10.17
2018-05-23T19:49:08.166Z,10.47
2018-05-23T19:51:35.660Z,11.07
2018-05-23T19:54:03.281Z,10.13
2018-05-23T19:56:31.556Z,9.37
2018-05-23T19:59:00.414Z,9.90
2018-05-23T20:01:28.494Z,9.40
2018-05-23T20:03:55.998Z,10.57
2018-05-23T20:06:23.490Z,9.83
2018-05-23T20:08:51.943Z,9.47
2018-05-23T20:11:19.417Z,9.53
2018-05-23T20:13:47.282Z,9.17
2018-05-23T20:16:15.181Z,9.07
2018-05-23T20:18:42.668Z,8.87
2018-05-23T20:21:10.189Z,9.07
2018-05-23T20:23:37.654Z,10.33
2018-05-23T20:26:05.426Z,9.93
2018-05-23T20:28:32.895Z,10.07
2018-05-23T20:31:01.357Z,9.53
2018-05-23T20:33:28.861Z,11.13
2018-05-23T20:35:56.362Z,10.33
2018-05-23T20:38:24.261Z,11.07
2018-05-23T20:40:52.516Z,10.23
2018-05-23T20:43:20.272Z,11.83
2018-05-23T20:45:47.744Z,11.43
2018-05-23T20:48:16.035Z,11.70
2018-05-23T20:50:44.276Z,13.80
2018-05-23T20:53:11.786Z,12.33
2018-05-23T20:55:39.268Z,11.87
2018-05-23T20:58:06.760Z,11.70
2018-05-23T21:00:34.951Z,10.87
2018-05-23T21:03:03.184Z,11.97
2018-05-23T21:05:30.747Z,11.43
2018-05-23T21:07:58.196Z,11.40
2018-05-23T21:10:26.144Z,11.73
2018-05-23T21:12:53.682Z,13.10
2018-05-23T21:15:22.361Z,13.40
2018-05-23T21:17:51.018Z,12.83
2018-05-23T21:20:18.509Z,12.13
2018-05-23T21:22:46.775Z,11.77
2018-05-23T21:25:15.012Z,13.50
2018-05-23T21:27:42.544Z,13.27
2018-05-23T21:30:10.942Z,12.30
2018-05-23T21:32:38.792Z,11.30
2018-05-23T21:35:06.261Z,11.73
2018-05-23T21:37:34.822Z,11.40
2018-05-23T21:40:02.514Z,12.07
2018-05-23T21:42:30.066Z,11.13
2018-05-23T21:44:57.537Z,11.27
2018-05-23T21:47:25.024Z,11.50
2018-05-23T21:49:52.516Z,10.17
2018-05-23T21:52:20.525Z,8.63
2018-05-23T21:54:48.340Z,8.50
2018-05-23T21:57:16.577Z,7.57
2018-05-23T21:59:44.070Z,6.83
2018-05-23T22:02:12.427Z,6.73
2018-05-23T22:04:39.886Z,7.03
2018-05-23T22:07:08.127Z,6.83
2018-05-23T22:09:35.606Z,6.63
2018-05-23T22:12:03.092Z,6.57
2018-05-23T22:14:31.655Z,6.27
2018-05-23T22:17:00.486Z,6.73
2018-05-23T22:19:27.962Z,7.57
2018-05-23T22:24:30.936Z,7.07
2018-05-23T22:26:58.364Z,6.57
2018-05-23T22:29:26.611Z,6.80
2018-05-23T22:31:54.166Z,7.40
2018-05-23T22:34:21.667Z,7.03
2018-05-23T22:36:49.872Z,7.07
2018-05-23T22:39:18.051Z,8.03
2018-05-23T22:41:45.515Z,7.27
2018-05-23T22:44:13.693Z,7.10
2018-05-23T22:46:41.171Z,6.80
2018-05-23T22:49:08.653Z,7.00
2018-05-23T22:51:36.942Z,7.40
2018-05-23T22:54:05.183Z,8.43
2018-05-23T22:56:32.661Z,7.67
2018-05-23T22:59:00.905Z,7.77
2018-05-23T23:01:29.140Z,7.80
2018-05-23T23:03:56.620Z,8.40
2018-05-23T23:06:24.075Z,8.50
2018-05-23T23:08:52.144Z,8.30
2018-05-23T23:11:19.632Z,8.03
2018-05-23T23:13:47.412Z,8.60
2018-05-23T23:16:14.870Z,7.63
2018-05-23T23:18:42.320Z,8.67
2018-05-23T23:21:10.383Z,9.10
2018-05-23T23:23:38.280Z,8.70
2018-05-23T23:26:06.529Z,8.73
2018-05-23T23:28:34.017Z,8.30
2018-05-23T23:31:02.282Z,9.07
2018-05-23T23:33:29.728Z,8.50
2018-05-23T23:35:57.217Z,8.87
2018-05-23T23:38:25.420Z,8.57
2018-05-23T23:40:52.896Z,8.37
2018-05-23T23:43:20.358Z,8.10
2018-05-23T23:45:48.452Z,8.67
2018-05-23T23:48:16.645Z,8.40
2018-05-23T23:50:44.887Z,8.73
2018-05-23T23:53:12.340Z,8.57
2018-05-23T23:55:40.255Z,9.23
2018-05-23T23:58:08.154Z,9.27
